sensor_id;sensor_type;location;lat;lon;timestamp;temperature;humidity
3136;DHT22;1578;47.658;9.922;2024-01-30T00:00:04;-0.60;47.10
3136;DHT22;1578;47.658;9.922;2024-01-30T00:02:31;-0.60;47.10
3136;DHT22;1578;47.658;9.922;2024-01-30T00:04:57;-0.70;46.60
3136;DHT22;1578;47.658;9.922;2024-01-30T00:07:23;-0.80;47.10
3136;DHT22;1578;47.658;9.922;2024-01-30T00:09:48;-0.80;47.60
3136;DHT22;1578;47.658;9.922;2024-01-30T00:12:14;-0.70;47.60
3136;DHT22;1578;47.658;9.922;2024-01-30T00:14:42;-0.70;47.50
3136;DHT22;1578;47.658;9.922;2024-01-30T00:17:08;-0.70;47.30
3136;DHT22;1578;47.658;9.922;2024-01-30T00:19:36;-0.70;47.60
3136;DHT22;1578;47.658;9.922;2024-01-30T00:22:02;-0.70;47.50
3136;DHT22;1578;47.658;9.922;2024-01-30T00:24:27;-0.80;47.40
3136;DHT22;1578;47.658;9.922;2024-01-30T00:26:53;-0.90;47.70
3136;DHT22;1578;47.658;9.922;2024-01-30T00:29:18;-0.90;47.70
3136;DHT22;1578;47.658;9.922;2024-01-30T00:31:45;-0.90;47.70
3136;DHT22;1578;47.658;9.922;2024-01-30T00:34:11;-1.00;47.60
3136;DHT22;1578;47.658;9.922;2024-01-30T00:36:37;-1.00;47.60
3136;DHT22;1578;47.658;9.922;2024-01-30T00:39:03;-1.00;48.00
3136;DHT22;1578;47.658;9.922;2024-01-30T00:41:32;-1.00;47.60
3136;DHT22;1578;47.658;9.922;2024-01-30T00:43:57;-1.00;48.50
3136;DHT22;1578;47.658;9.922;2024-01-30T00:46:23;-1.00;48.70
3136;DHT22;1578;47.658;9.922;2024-01-30T00:48:48;-1.00;48.40
3136;DHT22;1578;47.658;9.922;2024-01-30T00:51:14;-0.90;48.60
3136;DHT22;1578;47.658;9.922;2024-01-30T00:53:40;-0.90;48.30
3136;DHT22;1578;47.658;9.922;2024-01-30T00:56:07;-0.90;48.60
3136;DHT22;1578;47.658;9.922;2024-01-30T00:58:33;-0.90;48.70
3136;DHT22;1578;47.658;9.922;2024-01-30T01:00:59;-0.90;47.90
3136;DHT22;1578;47.658;9.922;2024-01-30T01:03:25;-0.90;47.70
3136;DHT22;1578;47.658;9.922;2024-01-30T01:05:50;-1.00;47.60
3136;DHT22;1578;47.658;9.922;2024-01-30T01:08:16;-1.00;48.80
3136;DHT22;1578;47.658;9.922;2024-01-30T01:10:42;-1.00;49.00
3136;DHT22;1578;47.658;9.922;2024-01-30T01:13:07;-1.00;49.20
3136;DHT22;1578;47.658;9.922;2024-01-30T01:15:33;-1.00;49.30
3136;DHT22;1578;47.658;9.922;2024-01-30T01:17:59;-1.00;49.40
3136;DHT22;1578;47.658;9.922;2024-01-30T01:20:25;-1.00;49.40
3136;DHT22;1578;47.658;9.922;2024-01-30T01:22:50;-1.00;49.10
3136;DHT22;1578;47.658;9.922;2024-01-30T01:25:18;-1.00;49.30
3136;DHT22;1578;47.658;9.922;2024-01-30T01:27:43;-1.00;48.80
3136;DHT22;1578;47.658;9.922;2024-01-30T01:30:20;-1.00;49.00
3136;DHT22;1578;47.658;9.922;2024-01-30T01:32:49;-0.90;49.20
3136;DHT22;1578;47.658;9.922;2024-01-30T01:35:23;-1.10;48.30
3136;DHT22;1578;47.658;9.922;2024-01-30T01:37:53;-1.10;48.60
3136;DHT22;1578;47.658;9.922;2024-01-30T01:40:25;-1.10;49.00
3136;DHT22;1578;47.658;9.922;2024-01-30T01:42:53;-1.00;49.30
3136;DHT22;1578;47.658;9.922;2024-01-30T01:45:20;-1.00;48.80
3136;DHT22;1578;47.658;9.922;2024-01-30T01:47:48;-1.00;48.70
3136;DHT22;1578;47.658;9.922;2024-01-30T01:50:16;-1.00;48.20
3136;DHT22;1578;47.658;9.922;2024-01-30T01:52:47;-1.00;48.60
3136;DHT22;1578;47.658;9.922;2024-01-30T01:55:13;-1.00;47.90
3136;DHT22;1578;47.658;9.922;2024-01-30T01:57:40;-1.10;47.50
3136;DHT22;1578;47.658;9.922;2024-01-30T02:00:07;-1.10;47.50
3136;DHT22;1578;47.658;9.922;2024-01-30T02:02:36;-1.10;48.50
3136;DHT22;1578;47.658;9.922;2024-01-30T02:05:02;-1.20;48.40
3136;DHT22;1578;47.658;9.922;2024-01-30T02:07:28;-1.10;48.80
3136;DHT22;1578;47.658;9.922;2024-01-30T02:09:54;-1.10;49.20
3136;DHT22;1578;47.658;9.922;2024-01-30T02:12:20;-1.10;48.70
3136;DHT22;1578;47.658;9.922;2024-01-30T02:14:46;-1.10;48.50
3136;DHT22;1578;47.658;9.922;2024-01-30T02:17:13;-1.10;48.60
3136;DHT22;1578;47.658;9.922;2024-01-30T02:19:39;-1.10;48.00
3136;DHT22;1578;47.658;9.922;2024-01-30T02:22:05;-1.20;47.40
3136;DHT22;1578;47.658;9.922;2024-01-30T02:24:31;-1.30;47.30
3136;DHT22;1578;47.658;9.922;2024-01-30T02:26:57;-1.30;48.10
3136;DHT22;1578;47.658;9.922;2024-01-30T02:29:22;-1.30;47.80
3136;DHT22;1578;47.658;9.922;2024-01-30T02:31:48;-1.40;48.30
3136;DHT22;1578;47.658;9.922;2024-01-30T02:34:14;-1.50;48.60
3136;DHT22;1578;47.658;9.922;2024-01-30T02:36:42;-1.50;48.90
3136;DHT22;1578;47.658;9.922;2024-01-30T02:39:09;-1.50;48.70
3136;DHT22;1578;47.658;9.922;2024-01-30T02:41:35;-1.40;49.30
3136;DHT22;1578;47.658;9.922;2024-01-30T02:44:01;-1.40;49.20
3136;DHT22;1578;47.658;9.922;2024-01-30T02:46:27;-1.40;49.30
3136;DHT22;1578;47.658;9.922;2024-01-30T02:48:53;-1.40;49.50
3136;DHT22;1578;47.658;9.922;2024-01-30T02:51:18;-1.30;49.40
3136;DHT22;1578;47.658;9.922;2024-01-30T02:53:44;-1.30;49.10
3136;DHT22;1578;47.658;9.922;2024-01-30T02:56:09;-1.20;49.30
3136;DHT22;1578;47.658;9.922;2024-01-30T02:58:38;-1.20;48.60
3136;DHT22;1578;47.658;9.922;2024-01-30T03:01:04;-1.30;49.30
3136;DHT22;1578;47.658;9.922;2024-01-30T03:03:29;-1.20;49.60
3136;DHT22;1578;47.658;9.922;2024-01-30T03:05:55;-1.20;50.20
3136;DHT22;1578;47.658;9.922;2024-01-30T03:08:21;-1.20;49.00
3136;DHT22;1578;47.658;9.922;2024-01-30T03:10:47;-1.20;49.80
3136;DHT22;1578;47.658;9.922;2024-01-30T03:13:12;-1.20;49.40
3136;DHT22;1578;47.658;9.922;2024-01-30T03:15:38;-1.20;48.80
3136;DHT22;1578;47.658;9.922;2024-01-30T03:18:04;-1.30;48.40
3136;DHT22;1578;47.658;9.922;2024-01-30T03:20:30;-1.30;48.60
3136;DHT22;1578;47.658;9.922;2024-01-30T03:22:56;-1.40;48.80
3136;DHT22;1578;47.658;9.922;2024-01-30T03:25:21;-1.30;48.80
3136;DHT22;1578;47.658;9.922;2024-01-30T03:27:47;-1.30;49.10
3136;DHT22;1578;47.658;9.922;2024-01-30T03:30:13;-1.30;48.70
3136;DHT22;1578;47.658;9.922;2024-01-30T03:32:38;-1.40;48.30
3136;DHT22;1578;47.658;9.922;2024-01-30T03:35:04;-1.30;49.30
3136;DHT22;1578;47.658;9.922;2024-01-30T03:37:30;-1.40;48.50
3136;DHT22;1578;47.658;9.922;2024-01-30T03:39:55;-1.40;47.70
3136;DHT22;1578;47.658;9.922;2024-01-30T03:42:21;-1.50;47.80
3136;DHT22;1578;47.658;9.922;2024-01-30T03:44:48;-1.50;48.30
3136;DHT22;1578;47.658;9.922;2024-01-30T03:47:13;-1.40;48.60
3136;DHT22;1578;47.658;9.922;2024-01-30T03:49:39;-1.50;48.90
3136;DHT22;1578;47.658;9.922;2024-01-30T03:52:05;-1.40;48.80
3136;DHT22;1578;47.658;9.922;2024-01-30T03:54:31;-1.50;48.80
3136;DHT22;1578;47.658;9.922;2024-01-30T03:56:56;-1.50;48.70
3136;DHT22;1578;47.658;9.922;2024-01-30T03:59:22;-1.50;49.00
3136;DHT22;1578;47.658;9.922;2024-01-30T04:01:52;-1.50;48.50
3136;DHT22;1578;47.658;9.922;2024-01-30T04:04:21;-1.60;48.00
3136;DHT22;1578;47.658;9.922;2024-01-30T04:06:47;-1.60;48.20
3136;DHT22;1578;47.658;9.922;2024-01-30T04:09:13;-1.60;48.60
3136;DHT22;1578;47.658;9.922;2024-01-30T04:11:41;-1.60;48.30
3136;DHT22;1578;47.658;9.922;2024-01-30T04:14:08;-1.60;48.50
3136;DHT22;1578;47.658;9.922;2024-01-30T04:16:34;-1.50;48.70
3136;DHT22;1578;47.658;9.922;2024-01-30T04:18:59;-1.50;48.70
3136;DHT22;1578;47.658;9.922;2024-01-30T04:21:25;-1.50;48.10
3136;DHT22;1578;47.658;9.922;2024-01-30T04:23:51;-1.50;47.60
3136;DHT22;1578;47.658;9.922;2024-01-30T04:26:17;-1.60;48.10
3136;DHT22;1578;47.658;9.922;2024-01-30T04:28:44;-1.60;48.60
3136;DHT22;1578;47.658;9.922;2024-01-30T04:31:10;-1.60;48.70
3136;DHT22;1578;47.658;9.922;2024-01-30T04:33:36;-1.60;48.50
3136;DHT22;1578;47.658;9.922;2024-01-30T04:36:02;-1.70;48.20
3136;DHT22;1578;47.658;9.922;2024-01-30T04:38:28;-1.70;48.50
3136;DHT22;1578;47.658;9.922;2024-01-30T04:40:54;-1.60;48.30
3136;DHT22;1578;47.658;9.922;2024-01-30T04:43:19;-1.60;48.70
3136;DHT22;1578;47.658;9.922;2024-01-30T04:45:45;-1.70;48.20
3136;DHT22;1578;47.658;9.922;2024-01-30T04:48:11;-1.70;48.80
3136;DHT22;1578;47.658;9.922;2024-01-30T04:50:36;-1.70;48.30
3136;DHT22;1578;47.658;9.922;2024-01-30T04:53:02;-1.60;48.60
3136;DHT22;1578;47.658;9.922;2024-01-30T04:55:27;-1.70;48.00
3136;DHT22;1578;47.658;9.922;2024-01-30T04:57:53;-1.70;47.60
3136;DHT22;1578;47.658;9.922;2024-01-30T05:00:19;-1.70;47.60
3136;DHT22;1578;47.658;9.922;2024-01-30T05:02:45;-1.70;47.80
3136;DHT22;1578;47.658;9.922;2024-01-30T05:05:11;-1.70;47.60
3136;DHT22;1578;47.658;9.922;2024-01-30T05:07:37;-1.80;47.90
3136;DHT22;1578;47.658;9.922;2024-01-30T05:10:04;-1.70;49.10
3136;DHT22;1578;47.658;9.922;2024-01-30T05:12:40;-1.60;48.60
3136;DHT22;1578;47.658;9.922;2024-01-30T05:15:06;-1.70;48.00
3136;DHT22;1578;47.658;9.922;2024-01-30T05:17:32;-1.70;48.00
3136;DHT22;1578;47.658;9.922;2024-01-30T05:19:58;-1.80;48.30
3136;DHT22;1578;47.658;9.922;2024-01-30T05:22:24;-1.80;48.10
3136;DHT22;1578;47.658;9.922;2024-01-30T05:24:50;-1.90;48.10
3136;DHT22;1578;47.658;9.922;2024-01-30T05:27:15;-1.80;48.40
3136;DHT22;1578;47.658;9.922;2024-01-30T05:29:41;-1.90;47.60
3136;DHT22;1578;47.658;9.922;2024-01-30T05:32:06;-1.90;48.40
3136;DHT22;1578;47.658;9.922;2024-01-30T05:34:32;-1.90;47.10
3136;DHT22;1578;47.658;9.922;2024-01-30T05:36:58;-1.90;48.30
3136;DHT22;1578;47.658;9.922;2024-01-30T05:39:24;-1.80;48.60
3136;DHT22;1578;47.658;9.922;2024-01-30T05:41:50;-1.80;48.50
3136;DHT22;1578;47.658;9.922;2024-01-30T05:44:15;-1.80;47.70
3136;DHT22;1578;47.658;9.922;2024-01-30T05:46:41;-1.90;48.10
3136;DHT22;1578;47.658;9.922;2024-01-30T05:49:07;-1.90;48.30
3136;DHT22;1578;47.658;9.922;2024-01-30T05:51:32;-1.90;48.30
3136;DHT22;1578;47.658;9.922;2024-01-30T05:53:58;-1.90;48.00
3136;DHT22;1578;47.658;9.922;2024-01-30T05:56:24;-1.80;48.30
3136;DHT22;1578;47.658;9.922;2024-01-30T05:58:49;-1.80;47.80
3136;DHT22;1578;47.658;9.922;2024-01-30T06:01:16;-1.80;47.50
3136;DHT22;1578;47.658;9.922;2024-01-30T06:03:41;-2.00;46.80
3136;DHT22;1578;47.658;9.922;2024-01-30T06:06:09;-2.00;46.80
3136;DHT22;1578;47.658;9.922;2024-01-30T06:08:34;-2.10;49.00
3136;DHT22;1578;47.658;9.922;2024-01-30T06:11:00;-2.20;47.50
3136;DHT22;1578;47.658;9.922;2024-01-30T06:13:26;-2.10;49.30
3136;DHT22;1578;47.658;9.922;2024-01-30T06:15:52;-2.20;49.50
3136;DHT22;1578;47.658;9.922;2024-01-30T06:18:17;-2.30;48.40
3136;DHT22;1578;47.658;9.922;2024-01-30T06:20:43;-2.20;50.00
3136;DHT22;1578;47.658;9.922;2024-01-30T06:23:09;-2.20;51.10
3136;DHT22;1578;47.658;9.922;2024-01-30T06:25:34;-2.00;51.30
3136;DHT22;1578;47.658;9.922;2024-01-30T06:28:00;-2.10;49.50
3136;DHT22;1578;47.658;9.922;2024-01-30T06:30:26;-2.10;49.20
3136;DHT22;1578;47.658;9.922;2024-01-30T06:32:51;-2.10;49.60
3136;DHT22;1578;47.658;9.922;2024-01-30T06:35:17;-2.00;49.60
3136;DHT22;1578;47.658;9.922;2024-01-30T06:37:43;-2.00;50.20
3136;DHT22;1578;47.658;9.922;2024-01-30T06:40:09;-1.90;49.70
3136;DHT22;1578;47.658;9.922;2024-01-30T06:42:35;-1.90;48.80
3136;DHT22;1578;47.658;9.922;2024-01-30T06:45:00;-1.90;49.80
3136;DHT22;1578;47.658;9.922;2024-01-30T06:47:26;-1.90;49.40
3136;DHT22;1578;47.658;9.922;2024-01-30T06:49:52;-1.90;50.20
3136;DHT22;1578;47.658;9.922;2024-01-30T06:52:17;-1.90;49.50
3136;DHT22;1578;47.658;9.922;2024-01-30T06:54:43;-1.90;49.50
3136;DHT22;1578;47.658;9.922;2024-01-30T06:57:08;-1.80;48.80
3136;DHT22;1578;47.658;9.922;2024-01-30T06:59:37;-1.80;48.00
3136;DHT22;1578;47.658;9.922;2024-01-30T07:02:07;-1.90;48.20
3136;DHT22;1578;47.658;9.922;2024-01-30T07:04:33;-1.90;48.00
3136;DHT22;1578;47.658;9.922;2024-01-30T07:06:58;-1.90;48.20
3136;DHT22;1578;47.658;9.922;2024-01-30T07:09:24;-1.90;48.00
3136;DHT22;1578;47.658;9.922;2024-01-30T07:11:50;-1.80;48.90
3136;DHT22;1578;47.658;9.922;2024-01-30T07:14:15;-1.80;49.00
3136;DHT22;1578;47.658;9.922;2024-01-30T07:16:41;-1.80;49.40
3136;DHT22;1578;47.658;9.922;2024-01-30T07:19:06;-1.70;49.70
3136;DHT22;1578;47.658;9.922;2024-01-30T07:21:34;-1.70;49.20
3136;DHT22;1578;47.658;9.922;2024-01-30T07:24:00;-1.70;49.40
3136;DHT22;1578;47.658;9.922;2024-01-30T07:26:25;-1.60;49.30
3136;DHT22;1578;47.658;9.922;2024-01-30T07:28:51;-1.60;49.70
3136;DHT22;1578;47.658;9.922;2024-01-30T07:31:17;-1.60;49.80
3136;DHT22;1578;47.658;9.922;2024-01-30T07:33:46;-1.50;49.70
3136;DHT22;1578;47.658;9.922;2024-01-30T07:36:11;-1.30;50.40
3136;DHT22;1578;47.658;9.922;2024-01-30T07:38:37;-1.20;49.90
3136;DHT22;1578;47.658;9.922;2024-01-30T07:41:03;-1.10;49.70
3136;DHT22;1578;47.658;9.922;2024-01-30T07:43:28;-1.20;49.00
3136;DHT22;1578;47.658;9.922;2024-01-30T07:45:54;-1.10;50.50
3136;DHT22;1578;47.658;9.922;2024-01-30T07:48:19;-1.10;51.00
3136;DHT22;1578;47.658;9.922;2024-01-30T07:50:45;-1.00;50.40
3136;DHT22;1578;47.658;9.922;2024-01-30T07:53:11;-0.80;50.80
3136;DHT22;1578;47.658;9.922;2024-01-30T07:55:36;-0.70;50.70
3136;DHT22;1578;47.658;9.922;2024-01-30T07:58:02;-0.50;51.00
3136;DHT22;1578;47.658;9.922;2024-01-30T08:00:29;-0.40;50.40
3136;DHT22;1578;47.658;9.922;2024-01-30T08:02:54;-0.30;50.50
3136;DHT22;1578;47.658;9.922;2024-01-30T08:05:21;-0.20;50.00
3136;DHT22;1578;47.658;9.922;2024-01-30T08:07:49;-0.30;50.50
3136;DHT22;1578;47.658;9.922;2024-01-30T08:10:15;-0.10;51.30
3136;DHT22;1578;47.658;9.922;2024-01-30T08:12:41;0.00;51.20
3136;DHT22;1578;47.658;9.922;2024-01-30T08:15:07;0.10;50.00
3136;DHT22;1578;47.658;9.922;2024-01-30T08:17:33;0.30;50.10
3136;DHT22;1578;47.658;9.922;2024-01-30T08:19:59;0.50;48.90
3136;DHT22;1578;47.658;9.922;2024-01-30T08:22:24;0.60;47.20
3136;DHT22;1578;47.658;9.922;2024-01-30T08:24:50;0.70;46.40
3136;DHT22;1578;47.658;9.922;2024-01-30T08:27:16;0.80;46.20
3136;DHT22;1578;47.658;9.922;2024-01-30T08:29:42;0.90;43.60
3136;DHT22;1578;47.658;9.922;2024-01-30T08:32:08;1.00;42.20
3136;DHT22;1578;47.658;9.922;2024-01-30T08:34:33;1.10;41.80
3136;DHT22;1578;47.658;9.922;2024-01-30T08:36:59;1.10;42.40
3136;DHT22;1578;47.658;9.922;2024-01-30T08:39:25;1.20;42.90
3136;DHT22;1578;47.658;9.922;2024-01-30T08:41:50;1.30;42.90
3136;DHT22;1578;47.658;9.922;2024-01-30T08:44:16;1.40;43.10
3136;DHT22;1578;47.658;9.922;2024-01-30T08:46:43;1.50;42.80
3136;DHT22;1578;47.658;9.922;2024-01-30T08:49:10;1.60;43.30
3136;DHT22;1578;47.658;9.922;2024-01-30T08:51:35;1.80;42.40
3136;DHT22;1578;47.658;9.922;2024-01-30T08:54:02;1.80;42.80
3136;DHT22;1578;47.658;9.922;2024-01-30T08:56:28;2.00;42.50
3136;DHT22;1578;47.658;9.922;2024-01-30T08:58:54;2.10;43.10
3136;DHT22;1578;47.658;9.922;2024-01-30T09:01:19;2.20;43.70
3136;DHT22;1578;47.658;9.922;2024-01-30T09:03:45;2.30;42.70
3136;DHT22;1578;47.658;9.922;2024-01-30T09:06:12;2.50;42.40
3136;DHT22;1578;47.658;9.922;2024-01-30T09:08:38;2.60;39.80
3136;DHT22;1578;47.658;9.922;2024-01-30T09:11:14;2.80;37.70
3136;DHT22;1578;47.658;9.922;2024-01-30T09:13:40;2.90;36.90
3136;DHT22;1578;47.658;9.922;2024-01-30T09:16:06;2.90;39.10
3136;DHT22;1578;47.658;9.922;2024-01-30T09:18:32;2.90;41.60
3136;DHT22;1578;47.658;9.922;2024-01-30T09:20:58;2.90;42.70
3136;DHT22;1578;47.658;9.922;2024-01-30T09:23:24;3.10;43.90
3136;DHT22;1578;47.658;9.922;2024-01-30T09:25:50;3.30;44.40
3136;DHT22;1578;47.658;9.922;2024-01-30T09:28:17;3.60;43.80
3136;DHT22;1578;47.658;9.922;2024-01-30T09:30:43;3.80;42.30
3136;DHT22;1578;47.658;9.922;2024-01-30T09:33:09;4.10;37.80
3136;DHT22;1578;47.658;9.922;2024-01-30T09:35:35;4.30;38.00
3136;DHT22;1578;47.658;9.922;2024-01-30T09:38:02;4.40;37.40
3136;DHT22;1578;47.658;9.922;2024-01-30T09:40:28;4.60;36.80
3136;DHT22;1578;47.658;9.922;2024-01-30T09:42:54;4.80;36.80
3136;DHT22;1578;47.658;9.922;2024-01-30T09:45:23;4.90;37.30
3136;DHT22;1578;47.658;9.922;2024-01-30T09:47:49;4.70;35.90
3136;DHT22;1578;47.658;9.922;2024-01-30T09:50:15;4.80;37.50
3136;DHT22;1578;47.658;9.922;2024-01-30T09:52:43;5.00;37.40
3136;DHT22;1578;47.658;9.922;2024-01-30T09:55:10;5.20;37.70
3136;DHT22;1578;47.658;9.922;2024-01-30T09:57:36;5.40;37.70
3136;DHT22;1578;47.658;9.922;2024-01-30T10:00:03;5.70;39.70
3136;DHT22;1578;47.658;9.922;2024-01-30T10:02:31;5.90;37.90
3136;DHT22;1578;47.658;9.922;2024-01-30T10:04:59;6.20;38.10
3136;DHT22;1578;47.658;9.922;2024-01-30T10:07:25;6.50;39.90
3136;DHT22;1578;47.658;9.922;2024-01-30T10:09:51;6.70;37.30
3136;DHT22;1578;47.658;9.922;2024-01-30T10:12:18;6.80;36.10
3136;DHT22;1578;47.658;9.922;2024-01-30T10:14:44;6.90;30.60
3136;DHT22;1578;47.658;9.922;2024-01-30T10:17:11;6.70;27.60
3136;DHT22;1578;47.658;9.922;2024-01-30T10:19:38;6.80;26.60
3136;DHT22;1578;47.658;9.922;2024-01-30T10:22:04;6.90;26.50
3136;DHT22;1578;47.658;9.922;2024-01-30T10:24:30;7.00;25.40
3136;DHT22;1578;47.658;9.922;2024-01-30T10:26:56;6.90;25.30
3136;DHT22;1578;47.658;9.922;2024-01-30T10:29:22;7.00;24.70
3136;DHT22;1578;47.658;9.922;2024-01-30T10:32:01;7.20;24.70
3136;DHT22;1578;47.658;9.922;2024-01-30T10:34:26;7.30;23.70
3136;DHT22;1578;47.658;9.922;2024-01-30T10:39:32;7.40;21.50
3136;DHT22;1578;47.658;9.922;2024-01-30T10:42:04;7.50;20.80
3136;DHT22;1578;47.658;9.922;2024-01-30T10:44:37;7.50;21.20
3136;DHT22;1578;47.658;9.922;2024-01-30T10:47:07;7.50;20.00
3136;DHT22;1578;47.658;9.922;2024-01-30T10:49:34;7.60;20.90
3136;DHT22;1578;47.658;9.922;2024-01-30T10:52:00;7.60;20.50
3136;DHT22;1578;47.658;9.922;2024-01-30T10:54:26;7.60;21.80
3136;DHT22;1578;47.658;9.922;2024-01-30T10:56:53;7.80;21.40
3136;DHT22;1578;47.658;9.922;2024-01-30T10:59:19;7.90;20.40
3136;DHT22;1578;47.658;9.922;2024-01-30T11:01:45;7.90;21.20
3136;DHT22;1578;47.658;9.922;2024-01-30T11:04:11;7.80;21.60
3136;DHT22;1578;47.658;9.922;2024-01-30T11:06:43;7.60;21.70
3136;DHT22;1578;47.658;9.922;2024-01-30T11:09:11;7.50;22.40
3136;DHT22;1578;47.658;9.922;2024-01-30T11:11:51;7.60;21.80
3136;DHT22;1578;47.658;9.922;2024-01-30T11:14:23;7.80;22.50
3136;DHT22;1578;47.658;9.922;2024-01-30T11:16:50;7.90;20.40
3136;DHT22;1578;47.658;9.922;2024-01-30T11:19:22;8.00;21.20
3136;DHT22;1578;47.658;9.922;2024-01-30T11:21:50;8.10;20.50
3136;DHT22;1578;47.658;9.922;2024-01-30T11:24:20;8.20;19.70
3136;DHT22;1578;47.658;9.922;2024-01-30T11:26:57;8.30;20.80
3136;DHT22;1578;47.658;9.922;2024-01-30T11:29:29;8.30;17.00
3136;DHT22;1578;47.658;9.922;2024-01-30T11:31:55;8.30;18.10
3136;DHT22;1578;47.658;9.922;2024-01-30T11:34:22;8.50;17.90
3136;DHT22;1578;47.658;9.922;2024-01-30T11:37:13;8.70;18.70
3136;DHT22;1578;47.658;9.922;2024-01-30T11:39:37;8.80;16.50
3136;DHT22;1578;47.658;9.922;2024-01-30T11:42:03;8.90;17.60
3136;DHT22;1578;47.658;9.922;2024-01-30T11:44:30;9.00;16.40
3136;DHT22;1578;47.658;9.922;2024-01-30T11:46:56;9.30;16.10
3136;DHT22;1578;47.658;9.922;2024-01-30T11:49:23;9.50;16.40
3136;DHT22;1578;47.658;9.922;2024-01-30T11:51:49;9.70;15.00
3136;DHT22;1578;47.658;9.922;2024-01-30T11:54:15;9.80;13.90
3136;DHT22;1578;47.658;9.922;2024-01-30T11:56:42;9.90;14.40
3136;DHT22;1578;47.658;9.922;2024-01-30T11:59:08;10.00;12.60
3136;DHT22;1578;47.658;9.922;2024-01-30T12:01:34;10.10;10.60
3136;DHT22;1578;47.658;9.922;2024-01-30T12:04:00;10.10;10.30
3136;DHT22;1578;47.658;9.922;2024-01-30T12:06:26;10.10;11.60
3136;DHT22;1578;47.658;9.922;2024-01-30T12:09:01;10.30;11.80
3136;DHT22;1578;47.658;9.922;2024-01-30T12:11:29;10.40;10.60
3136;DHT22;1578;47.658;9.922;2024-01-30T12:13:56;10.30;9.60
3136;DHT22;1578;47.658;9.922;2024-01-30T12:16:21;10.30;9.20
3136;DHT22;1578;47.658;9.922;2024-01-30T12:18:48;10.40;8.80
3136;DHT22;1578;47.658;9.922;2024-01-30T12:25:15;10.20;8.00
3136;DHT22;1578;47.658;9.922;2024-01-30T12:27:52;10.10;10.00
3136;DHT22;1578;47.658;9.922;2024-01-30T12:30:19;10.40;8.80
3136;DHT22;1578;47.658;9.922;2024-01-30T12:32:46;10.60;8.70
3136;DHT22;1578;47.658;9.922;2024-01-30T12:35:14;10.90;7.90
3136;DHT22;1578;47.658;9.922;2024-01-30T12:37:41;10.70;8.40
3136;DHT22;1578;47.658;9.922;2024-01-30T12:40:08;10.60;7.40
3136;DHT22;1578;47.658;9.922;2024-01-30T12:42:35;10.20;6.80
3136;DHT22;1578;47.658;9.922;2024-01-30T12:45:03;10.20;6.90
3136;DHT22;1578;47.658;9.922;2024-01-30T12:47:30;10.20;7.20
3136;DHT22;1578;47.658;9.922;2024-01-30T12:49:56;10.20;6.40
3136;DHT22;1578;47.658;9.922;2024-01-30T12:52:22;10.40;8.10
3136;DHT22;1578;47.658;9.922;2024-01-30T12:54:51;10.30;6.80
3136;DHT22;1578;47.658;9.922;2024-01-30T12:57:17;10.50;6.50
3136;DHT22;1578;47.658;9.922;2024-01-30T12:59:44;10.40;5.10
3136;DHT22;1578;47.658;9.922;2024-01-30T13:02:10;10.40;4.80
3136;DHT22;1578;47.658;9.922;2024-01-30T13:04:35;10.70;7.90
3136;DHT22;1578;47.658;9.922;2024-01-30T13:07:02;11.10;9.50
3136;DHT22;1578;47.658;9.922;2024-01-30T13:09:29;11.40;7.40
3136;DHT22;1578;47.658;9.922;2024-01-30T13:11:55;11.20;7.00
3136;DHT22;1578;47.658;9.922;2024-01-30T13:14:21;11.20;6.80
3136;DHT22;1578;47.658;9.922;2024-01-30T13:16:47;11.40;6.70
3136;DHT22;1578;47.658;9.922;2024-01-30T13:19:12;11.30;5.40
3136;DHT22;1578;47.658;9.922;2024-01-30T13:21:38;11.30;4.70
3136;DHT22;1578;47.658;9.922;2024-01-30T13:24:04;11.20;5.20
3136;DHT22;1578;47.658;9.922;2024-01-30T13:26:32;11.20;5.80
3136;DHT22;1578;47.658;9.922;2024-01-30T13:28:58;11.30;5.80
3136;DHT22;1578;47.658;9.922;2024-01-30T13:31:24;11.50;4.50
3136;DHT22;1578;47.658;9.922;2024-01-30T13:33:50;11.50;5.90
3136;DHT22;1578;47.658;9.922;2024-01-30T13:36:16;11.50;6.00
3136;DHT22;1578;47.658;9.922;2024-01-30T13:38:42;11.60;7.60
3136;DHT22;1578;47.658;9.922;2024-01-30T13:41:07;11.50;7.00
3136;DHT22;1578;47.658;9.922;2024-01-30T13:43:33;11.50;6.80
3136;DHT22;1578;47.658;9.922;2024-01-30T13:45:59;11.40;6.10
3136;DHT22;1578;47.658;9.922;2024-01-30T13:48:25;11.30;6.90
3136;DHT22;1578;47.658;9.922;2024-01-30T13:50:50;11.30;7.50
3136;DHT22;1578;47.658;9.922;2024-01-30T13:53:16;11.20;6.40
3136;DHT22;1578;47.658;9.922;2024-01-30T13:55:42;11.20;7.40
3136;DHT22;1578;47.658;9.922;2024-01-30T13:58:08;11.10;7.10
3136;DHT22;1578;47.658;9.922;2024-01-30T14:00:34;11.00;6.80
3136;DHT22;1578;47.658;9.922;2024-01-30T14:03:00;10.90;7.00
3136;DHT22;1578;47.658;9.922;2024-01-30T14:05:26;10.70;6.70
3136;DHT22;1578;47.658;9.922;2024-01-30T14:07:53;10.60;7.30
3136;DHT22;1578;47.658;9.922;2024-01-30T14:10:19;10.50;8.10
3136;DHT22;1578;47.658;9.922;2024-01-30T14:12:45;10.40;7.40
3136;DHT22;1578;47.658;9.922;2024-01-30T14:15:13;10.40;8.20
3136;DHT22;1578;47.658;9.922;2024-01-30T14:17:40;10.20;8.10
3136;DHT22;1578;47.658;9.922;2024-01-30T14:20:07;10.10;8.90
3136;DHT22;1578;47.658;9.922;2024-01-30T14:22:34;9.90;9.50
3136;DHT22;1578;47.658;9.922;2024-01-30T14:25:02;9.80;9.50
3136;DHT22;1578;47.658;9.922;2024-01-30T14:27:31;9.70;9.50
3136;DHT22;1578;47.658;9.922;2024-01-30T14:29:57;9.60;10.50
3136;DHT22;1578;47.658;9.922;2024-01-30T14:32:24;9.40;11.60
3136;DHT22;1578;47.658;9.922;2024-01-30T14:34:50;9.20;12.20
3136;DHT22;1578;47.658;9.922;2024-01-30T14:37:18;9.10;12.90
3136;DHT22;1578;47.658;9.922;2024-01-30T14:39:43;9.20;14.60
3136;DHT22;1578;47.658;9.922;2024-01-30T14:42:09;9.10;15.30
3136;DHT22;1578;47.658;9.922;2024-01-30T14:44:35;9.10;15.50
3136;DHT22;1578;47.658;9.922;2024-01-30T14:47:01;9.10;16.30
3136;DHT22;1578;47.658;9.922;2024-01-30T14:49:27;9.10;16.30
3136;DHT22;1578;47.658;9.922;2024-01-30T14:51:55;9.20;16.80
3136;DHT22;1578;47.658;9.922;2024-01-30T14:54:20;9.20;16.90
3136;DHT22;1578;47.658;9.922;2024-01-30T14:56:47;9.20;17.00
3136;DHT22;1578;47.658;9.922;2024-01-30T14:59:13;9.10;17.80
3136;DHT22;1578;47.658;9.922;2024-01-30T15:01:39;9.10;18.00
3136;DHT22;1578;47.658;9.922;2024-01-30T15:04:04;8.90;17.60
3136;DHT22;1578;47.658;9.922;2024-01-30T15:06:30;8.70;17.90
3136;DHT22;1578;47.658;9.922;2024-01-30T15:08:56;8.70;19.10
3136;DHT22;1578;47.658;9.922;2024-01-30T15:11:21;8.60;20.00
3136;DHT22;1578;47.658;9.922;2024-01-30T15:13:47;8.50;20.20
3136;DHT22;1578;47.658;9.922;2024-01-30T15:16:13;8.40;20.70
3136;DHT22;1578;47.658;9.922;2024-01-30T15:18:39;8.40;20.80
3136;DHT22;1578;47.658;9.922;2024-01-30T15:21:04;8.20;21.20
3136;DHT22;1578;47.658;9.922;2024-01-30T15:23:30;8.20;21.30
3136;DHT22;1578;47.658;9.922;2024-01-30T15:25:56;8.10;21.60
3136;DHT22;1578;47.658;9.922;2024-01-30T15:28:35;7.90;21.90
3136;DHT22;1578;47.658;9.922;2024-01-30T15:31:02;7.80;22.20
3136;DHT22;1578;47.658;9.922;2024-01-30T15:33:28;7.60;22.60
3136;DHT22;1578;47.658;9.922;2024-01-30T15:35:53;7.40;23.10
3136;DHT22;1578;47.658;9.922;2024-01-30T15:38:19;7.30;23.30
3136;DHT22;1578;47.658;9.922;2024-01-30T15:40:46;7.20;23.50
3136;DHT22;1578;47.658;9.922;2024-01-30T15:43:12;7.10;23.90
3136;DHT22;1578;47.658;9.922;2024-01-30T15:45:38;6.90;24.00
3136;DHT22;1578;47.658;9.922;2024-01-30T15:48:04;6.80;24.10
3136;DHT22;1578;47.658;9.922;2024-01-30T15:50:30;6.40;24.00
3136;DHT22;1578;47.658;9.922;2024-01-30T15:52:56;6.10;26.70
3136;DHT22;1578;47.658;9.922;2024-01-30T15:55:21;6.00;26.10
3136;DHT22;1578;47.658;9.922;2024-01-30T15:57:47;5.90;26.90
3136;DHT22;1578;47.658;9.922;2024-01-30T16:00:13;5.70;27.60
3136;DHT22;1578;47.658;9.922;2024-01-30T16:02:40;5.40;28.90
3136;DHT22;1578;47.658;9.922;2024-01-30T16:05:05;5.20;31.60
3136;DHT22;1578;47.658;9.922;2024-01-30T16:07:32;5.20;30.90
3136;DHT22;1578;47.658;9.922;2024-01-30T16:09:58;5.10;31.80